Time;durP1;ratioP1;P1;durP2;ratioP2;P2;SDS_P1;SDS_P2;PMS_P1;PMS_P2;Temp;Humidity;BMP_temperature;BMP_pressure;BME280_temperature;BME280_humidity;BME280_pressure;Samples;Min_cycle;Max_cycle;Signal;HPM_P1;HPM_P2
2021/04/10 00:02:21;;;;;;;8.98;7.10;;;;;;;15.11;45.49;100675.92;1807604;78;21147;-75
2021/04/10 00:04:48;;;;;;;8.13;6.87;;;;;;;15.10;45.47;100679.62;1788439;79;21151;-74
2021/04/10 00:07:16;;;;;;;8.38;7.12;;;;;;;15.09;45.43;100671.77;1777048;79;21523;-74
2021/04/10 00:09:43;;;;;;;8.53;7.22;;;;;;;15.08;45.37;100676.26;1792859;79;21164;-74
2021/04/10 00:12:11;;;;;;;9.85;6.95;;;;;;;15.06;45.35;100667.58;1789384;79;21210;-74
2021/04/10 00:14:40;;;;;;;8.13;7.12;;;;;;;15.05;45.36;100665.09;1789971;79;21186;-75
2021/04/10 00:17:08;;;;;;;9.45;7.85;;;;;;;15.03;45.31;100667.94;1817253;78;21143;-74
2021/04/10 00:20:30;;;;;;;8.53;7.12;;;;;;;15.06;45.39;100663.56;1824972;76;28319;-75
2021/04/10 00:23:00;;;;;;;9.13;6.90;;;;;;;15.02;45.40;100665.44;1780807;78;21162;-73
2021/04/10 00:25:27;;;;;;;8.13;6.80;;;;;;;15.01;45.38;100663.75;1745293;81;21356;-74
2021/04/10 00:27:56;;;;;;;9.48;7.67;;;;;;;14.99;45.37;100673.31;1743375;80;21220;-73
2021/04/10 00:30:24;;;;;;;7.70;6.78;;;;;;;14.99;45.37;100669.30;1725793;80;21165;-72
2021/04/10 00:32:52;;;;;;;9.30;7.10;;;;;;;14.97;45.31;100669.98;1744048;79;21603;-73
2021/04/10 00:35:19;;;;;;;8.83;7.17;;;;;;;14.96;45.35;100668.81;1732395;81;21110;-73
2021/04/10 00:37:47;;;;;;;8.50;6.83;;;;;;;14.95;45.38;100669.33;1733343;81;21202;-74
2021/04/10 00:40:15;;;;;;;7.58;6.78;;;;;;;14.92;45.41;100662.45;1742345;80;21587;-73
2021/04/10 00:42:46;;;;;;;7.50;6.45;;;;;;;14.91;45.33;100667.98;1788260;79;21646;-74
2021/04/10 00:45:14;;;;;;;7.72;6.42;;;;;;;14.90;45.31;100660.47;1783566;79;21158;-74
2021/04/10 00:47:43;;;;;;;8.98;6.95;;;;;;;14.90;45.35;100661.80;1745297;81;21161;-73
2021/04/10 00:50:11;;;;;;;8.10;6.55;;;;;;;14.88;45.29;100666.49;1749431;80;21263;-73
2021/04/10 00:52:42;;;;;;;9.23;6.92;;;;;;;14.88;45.30;100661.66;1750902;80;21652;-73
2021/04/10 00:55:11;;;;;;;8.83;6.85;;;;;;;14.87;45.36;100665.33;1741754;80;21185;-73
2021/04/10 00:57:38;;;;;;;8.38;6.55;;;;;;;14.85;45.37;100660.14;1743559;80;21181;-74
2021/04/10 01:00:12;;;;;;;7.47;6.40;;;;;;;14.84;45.32;100661.67;1764435;80;21181;-73
2021/04/10 01:02:40;;;;;;;7.33;6.25;;;;;;;14.82;45.43;100663.18;1745490;80;22333;-73
2021/04/10 01:05:09;;;;;;;8.00;6.83;;;;;;;14.81;45.35;100662.84;1749264;79;21166;-74
2021/04/10 01:07:37;;;;;;;9.23;6.97;;;;;;;14.81;45.33;100668.70;1748732;80;21154;-73
2021/04/10 01:10:06;;;;;;;9.85;7.10;;;;;;;14.80;45.34;100673.22;1745391;80;21143;-73
2021/04/10 01:13:04;;;;;;;8.73;6.67;;;;;;;14.78;45.35;100667.22;1748931;80;21209;-74
2021/04/10 01:15:43;;;;;;;11.22;8.28;;;;;;;14.78;45.34;100673.90;1768886;80;22282;-74
2021/04/10 01:18:27;;;;;;;12.35;7.80;;;;;;;14.75;45.32;100671.56;1743772;80;21587;-74
2021/04/10 01:21:13;;;;;;;12.40;8.63;;;;;;;14.73;45.35;100666.89;1750404;80;21178;-73
2021/04/10 01:24:15;;;;;;;11.70;8.08;;;;;;;14.71;45.31;100674.25;1747692;80;21181;-73
2021/04/10 01:27:30;;;;;;;12.10;8.48;;;;;;;14.68;45.26;100670.09;1743187;79;21137;-74
2021/04/10 01:30:15;;;;;;;11.45;9.43;;;;;;;14.65;45.40;100665.59;1737214;81;21432;-72
2021/04/10 01:32:59;;;;;;;15.30;9.18;;;;;;;14.61;45.47;100671.77;1738276;79;21182;-73
2021/04/10 01:35:34;;;;;;;13.88;9.48;;;;;;;14.60;45.47;100671.94;1743923;79;21105;-73
2021/04/10 01:38:04;;;;;;;12.20;9.08;;;;;;;14.59;45.46;100668.44;1745979;79;21135;-73
2021/04/10 01:40:33;;;;;;;14.40;9.58;;;;;;;14.58;45.42;100676.12;1750364;79;21107;-73
2021/04/10 01:43:02;;;;;;;14.83;10.15;;;;;;;14.57;45.45;100668.30;1738832;79;21267;-73
2021/04/10 01:45:31;;;;;;;14.35;9.78;;;;;;;14.55;45.50;100672.44;1735751;79;21152;-73
2021/04/10 01:48:05;;;;;;;13.62;9.53;;;;;;;14.55;45.46;100676.45;1745080;81;21149;-73
2021/04/10 01:50:36;;;;;;;15.03;10.63;;;;;;;14.56;45.41;100678.09;1737088;79;21198;-73
2021/04/10 01:53:05;;;;;;;14.05;9.80;;;;;;;14.54;45.44;100678.77;1705426;81;21158;-72
2021/04/10 01:55:35;;;;;;;14.10;9.98;;;;;;;14.55;45.37;100679.12;1743634;79;21135;-73
2021/04/10 01:58:03;;;;;;;15.78;10.30;;;;;;;14.53;45.38;100679.28;1740519;79;21182;-73
2021/04/10 02:00:34;;;;;;;11.65;8.73;;;;;;;14.53;45.33;100677.95;1736411;79;21193;-73
2021/04/10 02:03:02;;;;;;;13.48;10.38;;;;;;;14.51;45.34;100679.13;1746141;79;21186;-75
2021/04/10 02:05:31;;;;;;;15.00;10.00;;;;;;;14.51;45.33;100679.96;1739452;79;21544;-75
2021/04/10 02:08:01;;;;;;;12.15;9.33;;;;;;;14.51;45.38;100679.13;1735398;79;22177;-74
2021/04/10 02:10:28;;;;;;;13.15;8.90;;;;;;;14.50;45.33;100680.13;1737281;79;21130;-73
2021/04/10 02:13:16;;;;;;;13.13;9.55;;;;;;;14.54;45.36;100678.77;1786696;78;28258;-73
2021/04/10 02:15:51;;;;;;;12.63;9.38;;;;;;;14.48;45.43;100675.45;1765527;80;21540;-75
2021/04/10 02:18:23;;;;;;;14.13;9.05;;;;;;;14.47;45.40;100673.80;1769657;80;21400;-72
2021/04/10 02:20:54;;;;;;;11.73;9.25;;;;;;;14.47;45.38;100679.15;1777360;80;21653;-73
2021/04/10 02:23:22;;;;;;;12.47;9.45;;;;;;;14.46;45.24;100677.47;1779028;80;21617;-72
2021/04/10 02:25:51;;;;;;;11.08;9.18;;;;;;;14.45;45.25;100679.82;1775521;80;22086;-72
2021/04/10 02:28:19;;;;;;;12.73;9.33;;;;;;;14.44;45.25;100680.81;1768671;79;21188;-73
2021/04/10 02:30:48;;;;;;;11.63;8.65;;;;;;;14.43;45.32;100677.80;1769492;81;22641;-73
2021/04/10 02:33:34;;;;;;;10.82;8.48;;;;;;;14.42;45.32;100678.81;1768887;81;21197;-74
2021/04/10 02:36:06;;;;;;;11.10;7.70;;;;;;;14.41;45.31;100671.78;1762806;81;21132;-73
2021/04/10 02:38:33;;;;;;;11.00;8.48;;;;;;;14.40;45.32;100672.80;1735862;81;21210;-74
2021/04/10 02:41:23;;;;;;;12.05;8.40;;;;;;;14.39;45.26;100676.47;1765042;81;21615;-72
2021/04/10 02:44:04;;;;;;;12.63;8.35;;;;;;;14.37;45.28;100676.66;1730407;81;21599;-73
2021/04/10 02:46:37;;;;;;;9.38;7.33;;;;;;;14.35;45.20;100673.30;1749184;81;21179;-73
2021/04/10 02:49:12;;;;;;;13.25;8.23;;;;;;;14.33;45.27;100681.52;1759445;80;21244;-73
2021/04/10 02:51:48;;;;;;;10.85;7.62;;;;;;;14.32;45.35;100670.47;1767307;81;21181;-73
2021/04/10 02:54:22;;;;;;;9.65;7.70;;;;;;;14.31;45.31;100675.50;1769102;81;21199;-73
2021/04/10 02:57:04;;;;;;;12.25;7.87;;;;;;;14.31;45.37;100678.66;1734331;81;21378;-73
2021/04/10 02:59:32;;;;;;;8.53;7.08;;;;;;;14.29;45.37;100680.66;1765022;81;21631;-75
2021/04/10 03:02:02;;;;;;;8.43;6.83;;;;;;;14.28;45.34;100677.67;1742265;79;21204;-75
2021/04/10 03:04:30;;;;;;;12.07;7.97;;;;;;;14.27;45.34;100678.66;1766022;81;21160;-73
2021/04/10 03:06:58;;;;;;;10.60;7.30;;;;;;;14.26;45.33;100681.84;1767577;81;21605;-74
2021/04/10 03:09:27;;;;;;;8.40;7.28;;;;;;;14.25;45.33;100681.50;1767428;79;21372;-74
2021/04/10 03:11:55;;;;;;;9.13;7.20;;;;;;;14.25;45.36;100688.18;1768615;79;21165;-74
2021/04/10 03:14:23;;;;;;;10.68;7.62;;;;;;;14.25;45.34;100694.03;1752365;81;21202;-74
2021/04/10 03:16:54;;;;;;;9.60;7.03;;;;;;;14.24;45.37;100691.05;1757021;81;21125;-75
2021/04/10 03:19:23;;;;;;;8.28;6.62;;;;;;;14.23;45.25;100688.03;1760685;79;21659;-74
2021/04/10 03:21:52;;;;;;;10.13;6.67;;;;;;;14.23;45.22;100696.05;1756716;81;21356;-76
2021/04/10 03:24:20;;;;;;;9.73;7.17;;;;;;;14.22;45.34;100698.40;1760231;81;21184;-73
2021/04/10 03:26:50;;;;;;;8.65;6.83;;;;;;;14.21;45.20;100704.22;1753990;81;21202;-73
2021/04/10 03:29:20;;;;;;;8.48;7.25;;;;;;;14.20;45.22;100702.57;1752312;81;21208;-72
2021/04/10 03:31:48;;;;;;;9.13;6.78;;;;;;;14.19;45.31;100700.89;1782034;80;21203;-72
2021/04/10 03:34:16;;;;;;;9.18;6.97;;;;;;;14.19;45.25;100696.05;1781308;79;21411;-73
2021/04/10 03:36:44;;;;;;;9.03;7.50;;;;;;;14.19;45.26;100698.72;1770841;79;21128;-74
2021/04/10 03:39:12;;;;;;;9.50;7.47;;;;;;;14.18;45.29;100700.56;1731429;81;21155;-73
2021/04/10 03:41:42;;;;;;;8.30;6.25;;;;;;;14.18;45.29;100703.24;1754720;81;21152;-73
2021/04/10 03:44:11;;;;;;;10.05;7.37;;;;;;;14.18;45.26;100702.38;1763203;81;21187;-73
2021/04/10 03:46:39;;;;;;;9.13;6.72;;;;;;;14.17;45.25;100706.91;1740162;81;21623;-73
2021/04/10 03:49:09;;;;;;;8.50;6.80;;;;;;;14.16;45.33;100703.91;1766663;81;21166;-73
2021/04/10 03:51:37;;;;;;;8.50;6.35;;;;;;;14.15;45.34;100701.72;1751341;80;21147;-74
2021/04/10 03:54:05;;;;;;;8.35;6.30;;;;;;;14.15;45.32;100703.56;1752743;80;21160;-74
2021/04/10 03:56:35;;;;;;;7.45;6.25;;;;;;;14.15;45.28;100703.56;1750854;81;21219;-73
2021/04/10 03:59:04;;;;;;;8.08;6.40;;;;;;;14.16;45.33;100713.27;1728024;81;22158;-73
2021/04/10 04:01:36;;;;;;;8.38;6.58;;;;;;;14.16;45.32;100703.91;1752007;81;21163;-73
2021/04/10 04:04:04;;;;;;;8.35;6.22;;;;;;;14.15;45.33;100696.88;1745264;81;21117;-73
2021/04/10 04:06:32;;;;;;;8.30;6.15;;;;;;;14.16;45.35;100703.91;1748324;81;21144;-74
2021/04/10 04:08:59;;;;;;;7.00;6.00;;;;;;;14.16;45.45;100705.25;1745683;81;21637;-74
2021/04/10 04:11:29;;;;;;;8.30;6.35;;;;;;;14.17;45.35;100705.56;1764170;80;21356;-74
2021/04/10 04:14:01;;;;;;;6.70;5.72;;;;;;;14.18;45.29;100707.73;1764768;81;21208;-73
2021/04/10 04:16:28;;;;;;;7.42;5.78;;;;;;;14.16;45.32;100706.08;1759131;81;21601;-73
2021/04/10 04:19:07;;;;;;;7.17;5.80;;;;;;;14.17;45.34;100709.58;1755430;81;21196;-74
2021/04/10 04:21:35;;;;;;;7.33;5.53;;;;;;;14.18;45.38;100708.59;1767460;81;21254;-73
2021/04/10 04:24:04;;;;;;;7.15;5.67;;;;;;;14.18;45.32;100707.25;1760006;81;21368;-73
2021/04/10 04:26:31;;;;;;;6.58;5.70;;;;;;;14.19;45.27;100712.09;1763449;81;21105;-74
2021/04/10 04:28:59;;;;;;;6.40;5.42;;;;;;;14.20;45.28;100711.92;1765902;80;21146;-73
2021/04/10 04:31:27;;;;;;;6.95;5.80;;;;;;;14.21;45.28;100712.75;1759678;81;21222;-72
2021/04/10 04:33:56;;;;;;;8.25;6.37;;;;;;;14.21;45.25;100713.58;1754296;80;21147;-71
2021/04/10 04:36:24;;;;;;;8.35;5.80;;;;;;;14.22;45.25;100713.92;1762606;80;21637;-72
2021/04/10 04:38:52;;;;;;;9.83;7.03;;;;;;;14.23;45.22;100707.56;1760113;80;21198;-71
2021/04/10 04:41:21;;;;;;;6.40;5.28;;;;;;;14.25;45.20;100713.57;1747955;80;21177;-71
2021/04/10 04:43:49;;;;;;;7.55;5.87;;;;;;;14.27;45.14;100712.07;1751132;81;21192;-72
2021/04/10 04:46:16;;;;;;;7.47;5.97;;;;;;;14.27;45.17;100715.57;1767962;80;21164;-73
2021/04/10 04:48:43;;;;;;;6.92;5.55;;;;;;;14.29;45.13;100717.60;1748225;81;21208;-75
2021/04/10 04:51:11;;;;;;;8.70;5.83;;;;;;;14.30;45.02;100715.25;1750702;81;21226;-73
2021/04/10 04:53:39;;;;;;;6.37;5.28;;;;;;;14.32;45.01;100713.23;1753607;81;21208;-74
2021/04/10 04:56:07;;;;;;;6.78;5.40;;;;;;;14.33;45.02;100718.94;1752301;81;21606;-74
2021/04/10 04:58:34;;;;;;;5.78;5.05;;;;;;;14.35;44.88;100718.73;1752562;81;21147;-73
2021/04/10 05:01:01;;;;;;;8.53;5.60;;;;;;;14.36;44.86;100715.90;1754774;80;21260;-73
2021/04/10 05:03:28;;;;;;;6.15;5.20;;;;;;;14.38;44.81;100714.41;1743228;80;21173;-72
2021/04/10 05:05:55;;;;;;;7.08;5.28;;;;;;;14.39;44.67;100706.73;1736105;80;21208;-72
2021/04/10 05:08:23;;;;;;;7.65;5.47;;;;;;;14.42;44.67;100702.88;1743364;80;21183;-73
2021/04/10 05:10:50;;;;;;;6.17;5.12;;;;;;;14.43;44.64;100709.39;1749161;81;21187;-75
2021/04/10 05:13:18;;;;;;;8.05;5.78;;;;;;;14.45;44.60;100711.91;1750776;81;21380;-72
2021/04/10 05:15:45;;;;;;;6.62;5.05;;;;;;;14.47;44.58;100708.05;1748703;81;21095;-72
2021/04/10 05:18:12;;;;;;;6.62;5.30;;;;;;;14.49;44.52;100707.38;1746453;80;21663;-73
2021/04/10 05:20:41;;;;;;;7.08;5.62;;;;;;;14.51;44.50;100697.85;1770090;79;21293;-72
2021/04/10 05:23:09;;;;;;;7.03;5.05;;;;;;;14.53;44.44;100702.02;1768391;81;21608;-72
2021/04/10 05:25:36;;;;;;;6.58;5.15;;;;;;;14.55;44.53;100701.34;1767661;79;21220;-72
2021/04/10 05:28:04;;;;;;;7.20;4.87;;;;;;;14.58;45.06;100700.69;1762043;81;22259;-73
2021/04/10 05:30:32;;;;;;;6.62;5.03;;;;;;;14.61;45.33;100705.71;1745183;79;21187;-72
2021/04/10 05:33:01;;;;;;;7.28;5.35;;;;;;;14.63;45.39;100704.53;1766029;81;21210;-72
2021/04/10 05:35:28;;;;;;;6.33;5.10;;;;;;;14.64;45.36;100704.87;1771877;79;21192;-72
2021/04/10 05:37:55;;;;;;;6.83;5.30;;;;;;;14.67;45.31;100705.84;1753343;80;21316;-71
2021/04/10 05:40:23;;;;;;;8.55;5.15;;;;;;;14.69;45.23;100706.52;1766109;80;21261;-72
2021/04/10 05:42:50;;;;;;;6.53;5.12;;;;;;;14.72;45.18;100713.38;1766105;80;21596;-72
2021/04/10 05:45:17;;;;;;;6.10;5.35;;;;;;;14.74;45.07;100714.04;1760196;81;21624;-72
2021/04/10 05:47:46;;;;;;;5.83;4.80;;;;;;;14.75;45.06;100712.50;1769819;81;21187;-73
2021/04/10 05:50:13;;;;;;;6.53;5.08;;;;;;;14.78;44.98;100710.52;1769025;81;21407;-73
2021/04/10 05:52:40;;;;;;;6.00;4.92;;;;;;;14.79;44.95;100711.66;1778429;79;21132;-72
2021/04/10 05:55:09;;;;;;;6.97;4.87;;;;;;;14.82;44.92;100715.86;1771835;79;21168;-72
2021/04/10 05:57:36;;;;;;;7.53;4.90;;;;;;;14.84;44.80;100717.34;1769973;80;21142;-71
2021/04/10 06:00:05;;;;;;;6.70;5.28;;;;;;;14.86;44.65;100719.85;1769976;81;21155;-73
2021/04/10 06:02:34;;;;;;;6.42;5.15;;;;;;;14.88;44.58;100711.15;1754731;81;22172;-73
2021/04/10 06:05:01;;;;;;;6.87;5.47;;;;;;;14.90;44.50;100713.15;1764352;80;21204;-71
2021/04/10 06:07:30;;;;;;;7.00;5.17;;;;;;;14.92;44.46;100715.14;1755950;80;21159;-72
2021/04/10 06:09:57;;;;;;;6.12;4.42;;;;;;;14.96;44.39;100719.65;1759524;79;21159;-71
2021/04/10 06:12:25;;;;;;;5.90;4.83;;;;;;;14.97;44.33;100714.61;1766064;80;21156;-72
2021/04/10 06:14:52;;;;;;;7.20;5.00;;;;;;;14.99;44.31;100716.13;1766938;81;22130;-71
2021/04/10 06:17:19;;;;;;;6.08;4.83;;;;;;;15.01;44.21;100720.80;1766403;81;21159;-71
2021/04/10 06:19:47;;;;;;;5.22;4.37;;;;;;;15.03;44.21;100717.96;1764972;81;21191;-75
2021/04/10 06:22:16;;;;;;;5.58;4.47;;;;;;;15.06;44.21;100717.08;1760491;80;21192;-73
2021/04/10 06:24:43;;;;;;;5.33;4.80;;;;;;;15.08;44.18;100718.25;1763879;81;21194;-73
2021/04/10 06:27:11;;;;;;;6.08;4.78;;;;;;;15.08;44.19;100721.75;1764384;79;21222;-73
2021/04/10 06:29:38;;;;;;;7.03;4.58;;;;;;;15.11;44.17;100718.74;1766389;81;21608;-72
2021/04/10 06:32:07;;;;;;;4.67;4.03;;;;;;;15.14;44.15;100714.87;1766313;81;21236;-72
2021/04/10 06:34:35;;;;;;;6.10;4.37;;;;;;;15.18;44.08;100714.03;1766049;81;21130;-71
2021/04/10 06:37:02;;;;;;;5.33;4.40;;;;;;;15.19;44.10;100721.06;1764270;81;22298;-72
2021/04/10 06:39:29;;;;;;;6.30;4.78;;;;;;;15.21;44.07;100721.20;1765291;81;22231;-73
2021/04/10 06:41:57;;;;;;;7.17;4.22;;;;;;;15.24;44.03;100718.67;1763640;80;21155;-73
2021/04/10 06:44:24;;;;;;;5.78;4.40;;;;;;;15.25;44.01;100725.20;1764925;79;21143;-73
2021/04/10 06:46:51;;;;;;;5.12;4.37;;;;;;;15.28;43.98;100733.41;1766736;81;21147;-71
2021/04/10 06:49:19;;;;;;;6.25;4.92;;;;;;;15.30;43.92;100732.72;1766912;81;21180;-72
2021/04/10 06:51:46;;;;;;;4.87;4.25;;;;;;;15.32;43.90;100729.37;1766888;81;21218;-71
2021/04/10 06:54:15;;;;;;;4.87;4.33;;;;;;;15.34;43.79;100726.01;1766820;81;21188;-73
2021/04/10 06:56:48;;;;;;;5.25;4.33;;;;;;;15.36;43.73;100717.81;1766902;80;21141;-70
2021/04/10 06:59:55;;;;;;;5.05;4.28;;;;;;;15.38;43.74;100724.64;1767225;81;21127;-72
2021/04/10 07:02:22;;;;;;;6.25;3.75;;;;;;;15.40;43.73;100719.95;1768228;79;21115;-72
2021/04/10 07:04:50;;;;;;;5.25;4.15;;;;;;;15.40;43.73;100725.30;1766501;79;21405;-72
2021/04/10 07:07:17;;;;;;;6.50;4.28;;;;;;;15.42;43.74;100719.78;1765945;81;21351;-71
2021/04/10 07:09:44;;;;;;;5.28;4.37;;;;;;;15.44;43.69;100729.29;1765016;81;21155;-70
2021/04/10 07:12:12;;;;;;;6.40;5.10;;;;;;;15.46;43.68;100731.28;1766377;80;21152;-71
2021/04/10 07:14:41;;;;;;;5.22;4.33;;;;;;;15.47;43.69;100722.26;1766493;81;21215;-71
2021/04/10 07:17:13;;;;;;;4.35;3.87;;;;;;;15.51;43.58;100728.06;1767175;79;21201;-69
2021/04/10 07:19:42;;;;;;;5.53;4.25;;;;;;;15.53;43.58;100736.28;1765272;81;21647;-70
2021/04/10 07:22:12;;;;;;;4.72;3.95;;;;;;;15.55;43.54;100753.52;1763787;81;21166;-71
2021/04/10 07:24:50;;;;;;;5.03;4.20;;;;;;;15.58;43.56;100734.91;1765986;80;21143;-73
2021/04/10 07:27:24;;;;;;;5.15;4.17;;;;;;;15.61;43.47;100725.19;1765816;81;21186;-74
2021/04/10 07:29:54;;;;;;;4.45;3.80;;;;;;;15.62;43.50;100731.69;1765305;81;21580;-72
2021/04/10 07:32:33;;;;;;;4.15;3.55;;;;;;;15.64;43.50;100735.53;1779351;78;21168;-71
2021/04/10 07:35:06;;;;;;;6.00;4.37;;;;;;;15.66;43.49;100739.70;1744121;81;21203;-72
2021/04/10 07:37:46;;;;;;;6.55;4.08;;;;;;;15.68;43.49;100738.19;1748263;80;21156;-72
2021/04/10 07:40:26;;;;;;;4.65;4.03;;;;;;;15.70;43.54;100729.46;1770619;78;21206;-73
2021/04/10 07:42:53;;;;;;;4.78;4.22;;;;;;;15.72;43.48;100730.12;1755020;81;22552;-73
2021/04/10 07:45:34;;;;;;;4.65;3.70;;;;;;;15.74;43.47;100732.14;1766145;81;21199;-73
2021/04/10 07:48:06;;;;;;;4.83;4.35;;;;;;;15.76;43.56;100734.17;1766167;81;21660;-72
2021/04/10 07:50:34;;;;;;;4.55;3.77;;;;;;;15.78;43.47;100730.80;1767069;81;21216;-72
2021/04/10 07:53:29;;;;;;;5.22;3.83;;;;;;;15.80;43.41;100736.81;1751073;79;21178;-72
2021/04/10 07:56:00;;;;;;;4.60;3.92;;;;;;;15.83;43.39;100735.10;1764435;81;21150;-73
2021/04/10 07:58:32;;;;;;;5.22;3.90;;;;;;;15.84;43.52;100727.41;1766450;81;21173;-72
2021/04/10 08:01:08;;;;;;;4.50;3.80;;;;;;;15.87;43.39;100732.91;1765366;80;21143;-71
2021/04/10 08:03:40;;;;;;;5.15;3.98;;;;;;;15.90;43.44;100731.22;1765400;80;21207;-72
2021/04/10 08:06:13;;;;;;;3.90;3.27;;;;;;;15.92;43.39;100736.72;1764772;81;22041;-71
2021/04/10 08:08:58;;;;;;;4.67;3.45;;;;;;;15.95;43.34;100726.14;1769890;79;21375;-72
2021/04/10 08:11:42;;;;;;;4.50;3.85;;;;;;;15.98;43.26;100724.97;1766006;81;21206;-72
2021/04/10 08:14:14;;;;;;;3.92;3.55;;;;;;;15.99;43.31;100714.05;1760993;81;21188;-73
2021/04/10 08:16:45;;;;;;;5.35;4.17;;;;;;;16.01;43.29;100717.89;1767824;81;21159;-72
2021/04/10 08:19:13;;;;;;;4.50;4.10;;;;;;;16.03;43.36;100722.08;1768178;80;21181;-72
2021/04/10 08:21:45;;;;;;;5.25;3.98;;;;;;;16.06;43.33;100718.19;1768505;81;21414;-72
2021/04/10 08:24:42;;;;;;;4.70;3.65;;;;;;;16.08;43.30;100714.31;1768151;81;21140;-72
2021/04/10 08:27:12;;;;;;;5.83;4.03;;;;;;;16.12;43.31;100710.25;1772428;79;22145;-72
2021/04/10 08:29:42;;;;;;;4.42;3.37;;;;;;;16.16;43.39;100708.05;1769378;81;21159;-73
2021/04/10 08:32:11;;;;;;;3.92;3.20;;;;;;;16.19;43.52;100725.63;1768895;80;21194;-72
2021/04/10 08:34:38;;;;;;;4.10;3.50;;;;;;;16.23;43.57;100710.84;1769707;80;21176;-72
2021/04/10 08:37:08;;;;;;;4.42;3.30;;;;;;;16.25;43.69;100705.63;1767688;81;21170;-72
2021/04/10 08:39:40;;;;;;;4.45;3.55;;;;;;;16.30;43.79;100710.42;1768280;81;21156;-73
2021/04/10 08:42:11;;;;;;;;;;;;;;;16.34;43.84;100703.71;1773766;79;21167;-72
2021/04/10 08:44:39;;;;;;;4.58;2.98;;;;;;;16.39;43.95;100700.47;1770451;79;20267;-72
2021/04/10 08:47:06;;;;;;;3.35;2.98;;;;;;;16.36;43.95;100700.34;1769910;81;21398;-73
2021/04/10 08:49:41;;;;;;;3.58;3.10;;;;;;;16.41;44.01;100707.83;1769861;81;21164;-73
2021/04/10 08:52:12;;;;;;;3.67;3.20;;;;;;;16.46;43.93;100696.05;1750080;81;21604;-71
2021/04/10 08:54:41;;;;;;;4.55;2.98;;;;;;;16.52;43.87;100693.97;1769963;81;21179;-73
2021/04/10 08:57:11;;;;;;;4.20;3.17;;;;;;;16.57;43.85;100702.28;1769855;81;21184;-72
2021/04/10 08:59:46;;;;;;;3.05;2.60;;;;;;;16.62;43.75;100703.91;1770927;79;21390;-72
2021/04/10 09:02:21;;;;;;;3.90;3.17;;;;;;;16.68;43.79;100711.73;1760289;81;21184;-74
2021/04/10 09:05:04;;;;;;;3.42;3.08;;;;;;;16.72;43.86;100698.27;1769928;81;21148;-73
2021/04/10 09:07:53;;;;;;;4.03;3.42;;;;;;;16.78;43.79;100692.67;1718763;81;21199;-73
2021/04/10 09:10:32;;;;;;;4.53;3.08;;;;;;;16.83;43.97;100706.41;1765245;81;21152;-72
2021/04/10 09:13:14;;;;;;;3.62;2.77;;;;;;;16.88;43.83;100693.24;1769798;81;21378;-72
2021/04/10 09:15:42;;;;;;;4.08;3.10;;;;;;;16.94;43.84;100695.20;1770033;81;21172;-71
2021/04/10 09:18:11;;;;;;;3.55;3.00;;;;;;;16.98;43.88;100698.33;1771212;79;21183;-72
2021/04/10 09:20:48;;;;;;;3.52;2.95;;;;;;;17.04;43.87;100694.40;1769871;81;21136;-72
2021/04/10 09:23:31;;;;;;;3.42;3.12;;;;;;;17.10;43.75;100699.02;1769177;81;21227;-72
2021/04/10 09:26:15;;;;;;;3.90;2.77;;;;;;;17.17;43.83;100680.80;1769877;81;21475;-73
2021/04/10 09:29:01;;;;;;;5.33;3.27;;;;;;;17.25;44.13;100672.66;1769972;81;21580;-72
2021/04/10 09:31:49;;;;;;;3.72;2.60;;;;;;;17.34;44.22;100677.39;1752365;81;21138;-73
2021/04/10 09:34:51;;;;;;;3.60;2.50;;;;;;;17.40;44.26;100682.86;1767730;79;21211;-72
2021/04/10 09:37:27;;;;;;;3.00;2.70;;;;;;;17.49;44.28;100676.84;1769856;79;21156;-73
2021/04/10 09:40:04;;;;;;;3.65;3.08;;;;;;;17.57;44.50;100682.08;1769878;81;21590;-72
2021/04/10 09:45:27;;;;;;;3.22;2.80;;;;;;;17.74;44.44;100667.88;1769768;81;21414;-72
2021/04/10 09:48:00;;;;;;;3.75;2.98;;;;;;;17.84;44.39;100664.91;1769770;81;21180;-73
2021/04/10 09:50:38;;;;;;;3.17;2.40;;;;;;;17.94;44.23;100664.57;1771038;79;21156;-72
2021/04/10 09:53:15;;;;;;;3.05;2.75;;;;;;;18.02;44.24;100663.94;1762969;81;21199;-73
2021/04/10 09:55:47;;;;;;;3.22;2.50;;;;;;;18.12;44.33;100658.22;1768304;81;21176;-73
2021/04/10 09:58:17;;;;;;;4.15;2.95;;;;;;;18.24;44.23;100661.20;1769934;81;21147;-73
2021/04/10 10:00:48;;;;;;;2.72;2.25;;;;;;;18.33;44.57;100669.94;1767501;81;21159;-72
2021/04/10 10:03:19;;;;;;;2.80;2.42;;;;;;;18.44;44.46;100662.66;1767968;80;21562;-72
2021/04/10 10:05:51;;;;;;;2.90;2.55;;;;;;;18.54;44.84;100661.78;1765902;80;21449;-72
2021/04/10 10:08:27;;;;;;;3.05;2.70;;;;;;;18.65;44.52;100645.09;1778528;79;21207;-73
2021/04/10 10:10:57;;;;;;;2.60;2.20;;;;;;;18.77;44.15;100655.30;1767806;81;21646;-72
2021/04/10 10:13:30;;;;;;;4.25;2.70;;;;;;;18.89;43.60;100655.09;1767811;81;21642;-72
2021/04/10 10:15:58;;;;;;;3.70;2.40;;;;;;;19.00;43.32;100649.10;1767301;81;21609;-71
2021/04/10 10:18:32;;;;;;;3.25;2.58;;;;;;;19.12;42.85;100649.34;1767644;81;21412;-72
2021/04/10 10:21:17;;;;;;;3.25;2.40;;;;;;;19.25;42.65;100651.27;1755956;81;21579;-72
2021/04/10 10:23:56;;;;;;;2.60;2.40;;;;;;;19.37;42.35;100643.41;1768097;81;21244;-72
2021/04/10 10:26:41;;;;;;;3.15;2.45;;;;;;;19.49;42.15;100635.06;1776925;79;21686;-72
2021/04/10 10:29:12;;;;;;;2.35;1.95;;;;;;;19.62;41.85;100643.66;1768084;81;21164;-72
2021/04/10 10:31:52;;;;;;;3.35;2.33;;;;;;;19.73;41.52;100634.18;1768144;81;21255;-72
2021/04/10 10:34:23;;;;;;;2.50;2.15;;;;;;;19.87;41.50;100639.05;1760448;81;21233;-72
2021/04/10 10:36:53;;;;;;;2.10;1.90;;;;;;;19.99;41.32;100636.03;1769390;81;21144;-73
2021/04/10 10:39:35;;;;;;;2.55;2.33;;;;;;;20.11;41.21;100640.27;1768369;81;21148;-72
2021/04/10 10:42:05;;;;;;;2.95;2.17;;;;;;;20.23;41.02;100620.55;1778645;79;21591;-72
2021/04/10 10:44:36;;;;;;;4.50;2.70;;;;;;;20.36;40.82;100614.31;1769188;81;21198;-73
2021/04/10 10:47:07;;;;;;;2.58;2.30;;;;;;;20.49;40.65;100620.17;1769895;81;21849;-72
2021/04/10 10:49:34;;;;;;;2.60;2.10;;;;;;;20.62;40.74;100626.91;1770043;81;21183;-73
2021/04/10 10:52:02;;;;;;;2.87;2.05;;;;;;;20.74;40.64;100618.98;1748648;81;21156;-73
2021/04/10 10:54:37;;;;;;;3.02;2.30;;;;;;;20.88;40.87;100611.67;1769994;81;21176;-71
2021/04/10 10:57:12;;;;;;;3.25;2.37;;;;;;;21.01;40.95;100609.41;1769977;81;21377;-72
2021/04/10 10:59:43;;;;;;;2.65;2.15;;;;;;;21.15;41.11;100620.97;1768003;79;21628;-72
2021/04/10 11:02:18;;;;;;;2.22;2.02;;;;;;;21.29;40.94;100608.23;1748531;81;21144;-72
2021/04/10 11:04:46;;;;;;;3.25;2.42;;;;;;;21.44;41.12;100611.49;1770101;81;21627;-71
2021/04/10 11:07:14;;;;;;;2.55;1.95;;;;;;;21.60;41.02;100603.36;1745922;81;21170;-73
2021/04/10 11:09:42;;;;;;;2.67;2.08;;;;;;;21.76;40.97;100591.98;1768937;81;22797;-73
2021/04/10 11:12:12;;;;;;;2.52;2.27;;;;;;;21.92;41.12;100591.97;1766079;81;21228;-72
2021/04/10 11:14:45;;;;;;;2.15;1.90;;;;;;;22.09;41.16;100585.97;1768925;81;21663;-72
2021/04/10 11:17:28;;;;;;;2.42;2.05;;;;;;;22.24;41.21;100594.55;1767569;79;21147;-72
2021/04/10 11:19:58;;;;;;;2.40;2.10;;;;;;;22.41;41.11;100585.85;1767279;81;21172;-72
2021/04/10 11:22:24;;;;;;;3.02;2.33;;;;;;;22.62;40.54;100585.42;1766944;81;21160;-72
2021/04/10 11:24:52;;;;;;;2.30;2.10;;;;;;;22.90;40.06;100597.55;1766860;81;21627;-71
2021/04/10 11:27:23;;;;;;;2.47;1.95;;;;;;;23.17;39.83;100585.84;1767014;81;21164;-71
2021/04/10 11:29:59;;;;;;;2.67;2.30;;;;;;;23.49;39.56;100597.80;1766658;81;21068;-72
2021/04/10 11:32:39;;;;;;;2.20;2.00;;;;;;;23.80;39.16;100584.98;1768188;79;21646;-73
2021/04/10 11:35:25;;;;;;;2.80;2.40;;;;;;;24.12;38.66;100575.42;1752712;81;21364;-72
2021/04/10 11:37:58;;;;;;;2.42;2.17;;;;;;;24.44;38.19;100562.81;1766933;79;21195;-72
2021/04/10 11:40:31;;;;;;;2.85;2.10;;;;;;;24.78;37.79;100577.90;1766888;81;21100;-72
2021/04/10 11:43:01;;;;;;;1.97;1.80;;;;;;;25.07;37.40;100561.59;1789272;80;21722;-71
2021/04/10 11:45:38;;;;;;;2.70;2.30;;;;;;;25.35;37.05;100577.62;1789342;78;21140;-72
2021/04/10 11:48:12;;;;;;;2.60;2.20;;;;;;;25.60;36.80;100552.19;1789195;78;22654;-71
2021/04/10 11:50:57;;;;;;;2.20;2.00;;;;;;;25.85;36.66;100556.38;1790270;78;21172;-72